June Lake Junction, California
Current Conditions -  °F | °C
As of 12:55 AM on Sunday 21 Dec 2014 (Local Time) from KMMH Reporting Station
Clear Clear  
Wind Chill: 33°   Ceiling: Unl
Heat Index: 37°   Visibility: 10mi
Dew Point: 30°   Wind: 6mph
Humidity: 75%   Direction: 150°SSE
Pressure: 30.26"   Gusts: NA
Location:  37.8196°N, 119.076°W
Report Text: KMMH 210855Z AUTO 15005KT 10SM CLR 03/M01 A3026 RMK AO1
Loading
Personal Weather Stations






























Interactive Weather Map New forecast layout! Learn more

10-Day Weather Forecast

Advertisements
Track Severe Weather on mobile